createdAt,value
2022-10-03T00:01:25.505Z,99915.28
2022-10-03T00:03:00.800Z,99908.72
2022-10-03T00:04:27.035Z,99910.38
2022-10-03T00:05:52.039Z,99899.19
2022-10-03T00:07:17.717Z,99901.50
2022-10-03T00:08:47.634Z,99896.00
2022-10-03T00:09:58.469Z,99893.94
2022-10-03T00:11:17.814Z,99904.25
2022-10-03T00:12:38.621Z,99886.19
2022-10-03T00:13:53.417Z,99899.97
2022-10-03T00:15:21.896Z,99895.28
2022-10-03T00:16:50.544Z,99902.03
2022-10-03T00:18:06.158Z,99902.44
2022-10-03T00:19:25.560Z,99913.84
2022-10-03T00:20:56.035Z,99918.06
2022-10-03T00:22:31.394Z,99911.06
2022-10-03T00:23:58.221Z,99920.56
2022-10-03T00:25:03.021Z,99928.44
2022-10-03T00:26:28.423Z,99925.56
2022-10-03T00:27:41.003Z,99929.78
2022-10-03T00:29:19.173Z,99925.28
2022-10-03T00:30:23.372Z,99936.84
2022-10-03T00:31:46.487Z,99939.47
2022-10-03T00:32:57.625Z,99936.34
2022-10-03T00:34:02.527Z,99924.53
2022-10-03T00:35:20.102Z,99935.97
2022-10-03T00:36:55.597Z,99934.09
2022-10-03T00:38:16.338Z,99938.28
2022-10-03T00:39:49.432Z,99932.00
2022-10-03T00:41:03.539Z,99937.47
2022-10-03T00:42:24.271Z,99940.91
2022-10-03T00:43:52.480Z,99945.38
2022-10-03T00:45:22.501Z,99946.44
2022-10-03T00:47:01.575Z,99942.53
2022-10-03T00:48:37.589Z,99938.03
2022-10-03T00:50:04.210Z,99960.19
2022-10-03T00:51:27.631Z,99956.81
2022-10-03T00:52:50.076Z,99955.69
2022-10-03T00:54:16.580Z,99955.84
2022-10-03T00:55:36.990Z,99950.41
2022-10-03T00:57:10.121Z,99951.94
2022-10-03T00:58:39.158Z,99950.91
2022-10-03T01:00:04.408Z,99947.66
2022-10-03T01:01:29.301Z,99946.09
2022-10-03T01:02:52.350Z,99950.34
2022-10-03T01:04:26.862Z,99949.50
2022-10-03T01:05:38.832Z,99958.13
2022-10-03T01:06:49.619Z,99956.91
2022-10-03T01:08:22.442Z,99960.13
2022-10-03T01:10:09.405Z,99955.88
2022-10-03T01:11:32.596Z,99962.00
2022-10-03T01:12:59.657Z,99966.00
2022-10-03T01:14:10.699Z,99959.31
2022-10-03T01:15:22.764Z,99966.66
2022-10-03T01:16:37.848Z,99975.47
2022-10-03T01:18:27.718Z,99972.25
2022-10-03T01:19:59.224Z,99976.59
2022-10-03T01:21:01.411Z,99980.88
2022-10-03T01:22:15.471Z,99975.56
2022-10-03T01:23:32.623Z,99978.34
2022-10-03T01:24:53.548Z,99979.13
2022-10-03T01:26:20.146Z,99971.88
2022-10-03T01:28:04.027Z,99976.91
2022-10-03T01:29:36.530Z,99969.78
2022-10-03T01:30:43.796Z,99986.66
2022-10-03T01:32:24.313Z,99974.47
2022-10-03T01:33:51.013Z,99991.59
2022-10-03T01:35:00.400Z,99988.91
2022-10-03T01:36:25.631Z,99991.50
2022-10-03T01:37:40.279Z,99994.22
2022-10-03T01:39:06.028Z,99999.69
2022-10-03T01:40:13.942Z,99999.88
2022-10-03T01:41:33.649Z,100005.94
2022-10-03T01:42:53.324Z,100003.97
2022-10-03T01:44:02.196Z,100002.06
2022-10-03T01:45:15.466Z,99997.53
2022-10-03T01:46:22.682Z,100007.09
2022-10-03T01:47:37.538Z,100003.97
2022-10-03T01:48:48.983Z,100007.75
2022-10-03T01:50:04.293Z,100005.94
2022-10-03T01:51:19.192Z,100002.41
2022-10-03T01:52:41.398Z,100004.69
2022-10-03T01:53:52.245Z,100013.38
2022-10-03T01:55:08.181Z,100016.81
2022-10-03T01:56:31.423Z,100005.13
2022-10-03T01:58:12.689Z,100005.47
2022-10-03T01:59:45.507Z,100008.88
2022-10-03T02:00:56.431Z,100013.44
2022-10-03T02:02:25.128Z,100001.78
2022-10-03T02:03:35.067Z,100007.91
2022-10-03T02:04:55.912Z,100003.47
2022-10-03T02:06:19.534Z,100003.19
2022-10-03T02:07:27.447Z,99999.19
2022-10-03T02:09:20.549Z,100001.69
2022-10-03T02:10:48.040Z,99995.03
2022-10-03T02:11:50.156Z,99997.81
2022-10-03T02:13:17.375Z,100004.59
2022-10-03T02:14:31.516Z,100009.41
2022-10-03T02:15:58.250Z,100005.44
2022-10-03T02:17:09.677Z,100002.34
2022-10-03T02:18:28.478Z,100004.97
2022-10-03T02:19:56.075Z,100006.72
2022-10-03T02:21:20.883Z,100012.38
2022-10-03T02:22:42.520Z,100014.50
2022-10-03T02:23:46.070Z,100006.97
2022-10-03T02:24:56.030Z,100011.03
2022-10-03T02:26:17.054Z,100013.38
2022-10-03T02:27:41.390Z,100015.09
2022-10-03T02:28:54.660Z,100021.03
2022-10-03T02:30:19.838Z,100025.13
2022-10-03T02:31:25.000Z,100029.44
2022-10-03T02:33:01.278Z,100034.97
2022-10-03T02:34:34.200Z,100017.63
2022-10-03T02:35:43.148Z,100023.94
2022-10-03T02:37:27.362Z,100016.91
2022-10-03T02:38:50.862Z,100029.75
2022-10-03T02:40:30.826Z,100025.50
2022-10-03T02:41:39.374Z,100026.41
2022-10-03T02:43:17.242Z,100017.25
2022-10-03T02:44:37.367Z,100024.09
2022-10-03T02:46:07.386Z,100015.81
2022-10-03T02:47:46.257Z,100010.34
2022-10-03T02:48:48.419Z,100020.63
2022-10-03T02:49:59.342Z,100020.41
2022-10-03T02:51:09.990Z,100017.84
2022-10-03T02:52:18.165Z,100025.50
2022-10-03T02:53:59.926Z,100020.34
2022-10-03T02:55:14.447Z,100030.72
2022-10-03T02:56:28.483Z,100015.41
2022-10-03T02:57:54.786Z,100020.81
2022-10-03T02:59:19.274Z,100028.09
2022-10-03T03:00:32.375Z,100028.00
2022-10-03T03:02:02.712Z,100024.41
2022-10-03T03:03:52.426Z,100026.94
2022-10-03T03:05:19.232Z,100020.81
2022-10-03T03:06:54.049Z,100022.69
2022-10-03T03:08:17.936Z,100020.25
2022-10-03T03:09:25.841Z,100015.69
2022-10-03T03:10:46.200Z,100023.09
2022-10-03T03:12:16.376Z,100025.16
2022-10-03T03:13:38.610Z,100024.97
2022-10-03T03:14:57.165Z,100027.72
2022-10-03T03:16:11.361Z,100017.31
2022-10-03T03:17:30.949Z,100027.72
2022-10-03T03:18:53.562Z,100016.13
2022-10-03T03:20:01.677Z,100025.91
2022-10-03T03:21:27.947Z,100016.09
2022-10-03T03:22:36.642Z,100019.53
2022-10-03T03:23:44.512Z,100019.69
2022-10-03T03:25:26.663Z,100016.31
2022-10-03T03:26:51.419Z,100022.53
2022-10-03T03:28:19.493Z,100022.47
2022-10-03T03:29:46.920Z,100022.53
2022-10-03T03:31:11.046Z,100015.25
2022-10-03T03:32:33.915Z,100008.81
2022-10-03T03:33:58.422Z,100009.19
2022-10-03T03:35:33.792Z,100013.56
2022-10-03T03:36:46.656Z,100011.75
2022-10-03T03:38:00.639Z,100019.66
2022-10-03T03:39:08.426Z,100025.50
2022-10-03T03:40:29.491Z,100015.88
2022-10-03T03:41:50.939Z,100014.47
2022-10-03T03:43:25.127Z,100022.81
2022-10-03T03:44:45.771Z,100025.94
2022-10-03T03:46:19.473Z,100033.00
2022-10-03T03:48:00.543Z,100038.84
2022-10-03T03:49:17.647Z,100036.09
2022-10-03T03:50:48.408Z,100047.00
2022-10-03T03:52:20.596Z,100049.59
2022-10-03T03:53:36.581Z,100049.19
2022-10-03T03:55:16.427Z,100051.81
2022-10-03T03:56:37.134Z,100055.75
2022-10-03T03:58:00.839Z,100055.13
2022-10-03T03:59:14.927Z,100052.53
2022-10-03T04:00:31.277Z,100051.41
2022-10-03T04:01:59.142Z,100041.53
2022-10-03T04:03:30.726Z,100059.03
2022-10-03T04:04:51.951Z,100052.81
2022-10-03T04:06:22.550Z,100056.19
2022-10-03T04:07:43.945Z,100055.03
2022-10-03T04:09:16.920Z,100049.25
2022-10-03T04:10:38.286Z,100046.22
2022-10-03T04:12:07.782Z,100049.97
2022-10-03T04:14:03.056Z,100047.50
2022-10-03T04:15:23.215Z,100050.22
2022-10-03T04:16:46.642Z,100051.84
2022-10-03T04:18:14.226Z,100057.56
2022-10-03T04:19:37.319Z,100053.56
2022-10-03T04:21:10.043Z,100050.66
2022-10-03T04:22:41.238Z,100062.84
2022-10-03T04:23:52.397Z,100064.41
2022-10-03T04:25:26.245Z,100065.41
2022-10-03T04:26:59.573Z,100061.66
2022-10-03T04:28:34.334Z,100073.31
2022-10-03T04:30:02.205Z,100071.78
2022-10-03T04:31:25.900Z,100068.38
2022-10-03T04:32:57.216Z,100083.56
2022-10-03T04:34:23.609Z,100079.81
2022-10-03T04:35:49.281Z,100077.09
2022-10-03T04:37:06.683Z,100077.84
2022-10-03T04:38:32.190Z,100084.81
2022-10-03T04:39:58.397Z,100074.25
2022-10-03T04:41:19.752Z,100075.97
2022-10-03T04:42:50.446Z,100085.59
2022-10-03T04:44:31.592Z,100091.03
2022-10-03T04:45:45.895Z,100082.25
2022-10-03T04:47:17.639Z,100095.59
2022-10-03T04:48:19.755Z,100093.66
2022-10-03T04:49:39.002Z,100090.00
2022-10-03T04:50:45.349Z,100091.13
2022-10-03T04:52:07.004Z,100094.56
2022-10-03T04:53:46.207Z,100094.66
2022-10-03T04:55:02.506Z,100095.06
2022-10-03T04:56:23.067Z,100095.38
2022-10-03T04:57:35.844Z,100089.38
2022-10-03T04:58:57.481Z,100091.91
2022-10-03T05:00:08.560Z,100089.28
2022-10-03T05:01:49.339Z,100082.13
2022-10-03T05:03:13.192Z,100080.59
2022-10-03T05:04:29.813Z,100083.28
2022-10-03T05:05:47.414Z,100077.06
2022-10-03T05:07:14.393Z,100078.72
2022-10-03T05:08:39.462Z,100082.19
2022-10-03T05:10:17.135Z,100076.94
2022-10-03T05:11:58.648Z,100075.44
2022-10-03T05:13:16.333Z,100084.16
2022-10-03T05:14:22.360Z,100074.66
2022-10-03T05:15:29.420Z,100081.66
2022-10-03T05:16:40.229Z,100083.66
2022-10-03T05:18:01.319Z,100086.88
2022-10-03T05:19:37.244Z,100092.03
2022-10-03T05:20:57.830Z,100080.56
2022-10-03T05:22:19.079Z,100093.66
2022-10-03T05:23:31.185Z,100097.28
2022-10-03T05:24:34.174Z,100107.75
2022-10-03T05:25:39.962Z,100109.56
2022-10-03T05:26:53.894Z,100109.66
2022-10-03T05:28:12.025Z,100114.81
2022-10-03T05:29:25.238Z,100119.06
2022-10-03T05:30:57.043Z,100116.53
2022-10-03T05:32:16.864Z,100139.47
2022-10-03T05:33:31.491Z,100140.47
2022-10-03T05:34:55.312Z,100148.38
2022-10-03T05:36:16.003Z,100141.44
2022-10-03T05:37:20.854Z,100152.91
2022-10-03T05:38:53.131Z,100164.50
2022-10-03T05:40:15.067Z,100168.16
2022-10-03T05:41:17.197Z,100170.78
2022-10-03T05:42:25.076Z,100174.41
2022-10-03T05:43:46.119Z,100183.22
2022-10-03T05:45:11.148Z,100169.88
2022-10-03T05:46:21.136Z,100175.81
2022-10-03T05:47:44.740Z,100175.78
2022-10-03T05:49:32.288Z,100172.34
2022-10-03T05:51:02.992Z,100176.69
2022-10-03T05:52:50.297Z,100176.88
2022-10-03T05:54:16.645Z,100178.81
2022-10-03T05:55:41.969Z,100181.44
2022-10-03T05:56:52.772Z,100187.38
2022-10-03T05:58:20.092Z,100185.81
2022-10-03T05:59:59.995Z,100191.78
2022-10-03T06:01:30.855Z,100198.53
2022-10-03T06:02:54.738Z,100193.97
2022-10-03T06:04:42.041Z,100193.88
2022-10-03T06:06:24.557Z,100208.81
2022-10-03T06:08:04.833Z,100201.13
2022-10-03T06:09:30.576Z,100206.06
2022-10-03T06:10:51.908Z,100204.22
2022-10-03T06:12:04.535Z,100205.91
2022-10-03T06:13:37.843Z,100209.34
2022-10-03T06:15:03.186Z,100213.66
2022-10-03T06:16:16.820Z,100218.72
2022-10-03T06:17:27.766Z,100223.91
2022-10-03T06:18:54.969Z,100225.50
2022-10-03T06:20:34.520Z,100225.53
2022-10-03T06:21:57.621Z,100223.63
2022-10-03T06:23:17.633Z,100222.66
2022-10-03T06:24:49.257Z,100245.47
2022-10-03T06:26:24.204Z,100242.41
2022-10-03T06:27:38.291Z,100240.31
2022-10-03T06:29:15.596Z,100243.34
2022-10-03T06:30:32.774Z,100233.66
2022-10-03T06:32:18.375Z,100239.75
2022-10-03T06:33:58.580Z,100244.13
2022-10-03T06:35:18.910Z,100250.63
2022-10-03T06:36:45.765Z,100255.72
2022-10-03T06:38:15.490Z,100254.88
2022-10-03T06:39:55.179Z,100262.69
2022-10-03T06:41:15.108Z,100255.78
2022-10-03T06:42:41.203Z,100256.28
2022-10-03T06:44:15.017Z,100256.31
2022-10-03T06:45:41.886Z,100256.59
2022-10-03T06:47:03.213Z,100243.56
2022-10-03T06:48:23.632Z,100244.09
2022-10-03T06:49:34.767Z,100244.13
2022-10-03T06:50:51.865Z,100245.13
2022-10-03T06:52:25.397Z,100243.25
2022-10-03T06:53:40.541Z,100249.44
2022-10-03T06:55:10.424Z,100250.47
2022-10-03T06:56:44.190Z,100257.78
2022-10-03T06:58:27.469Z,100256.34
2022-10-03T06:59:47.642Z,100258.31
2022-10-03T07:01:11.328Z,100248.09
2022-10-03T07:02:48.697Z,100246.47
2022-10-03T07:04:02.729Z,100248.97
2022-10-03T07:05:25.079Z,100243.50
2022-10-03T07:06:46.027Z,100254.16
2022-10-03T07:08:11.985Z,100248.94
2022-10-03T07:09:57.983Z,100250.22
2022-10-03T07:11:14.431Z,100257.97
2022-10-03T07:13:04.944Z,100260.66
2022-10-03T07:14:35.205Z,100265.28
2022-10-03T07:16:08.673Z,100268.44
2022-10-03T07:17:11.157Z,100279.78
2022-10-03T07:18:25.123Z,100277.00
2022-10-03T07:20:12.274Z,100267.22
2022-10-03T07:21:32.391Z,100263.78
2022-10-03T07:22:52.937Z,100261.78
2022-10-03T07:24:28.822Z,100264.28
2022-10-03T07:26:06.993Z,100272.38
2022-10-03T07:27:30.758Z,100267.88
2022-10-03T07:28:56.695Z,100277.72
2022-10-03T07:30:24.250Z,100283.09
2022-10-03T07:31:32.285Z,100287.84
2022-10-03T07:32:37.096Z,100283.50
2022-10-03T07:33:53.001Z,100290.38
2022-10-03T07:35:19.745Z,100289.50
2022-10-03T07:36:49.470Z,100297.75
2022-10-03T07:38:53.724Z,100310.25
2022-10-03T07:40:33.227Z,100309.81
2022-10-03T07:41:41.547Z,100306.63
2022-10-03T07:43:11.540Z,100310.53
2022-10-03T07:44:35.775Z,100311.97
2022-10-03T07:45:45.245Z,100312.84
2022-10-03T07:47:05.986Z,100305.97
2022-10-03T07:48:28.431Z,100319.78
2022-10-03T07:49:54.834Z,100317.63
2022-10-03T07:51:14.159Z,100316.03
2022-10-03T07:52:39.383Z,100313.84
2022-10-03T07:54:18.675Z,100322.97
2022-10-03T07:55:29.786Z,100317.94
2022-10-03T07:57:09.749Z,100323.25
2022-10-03T07:58:26.220Z,100335.75
2022-10-03T07:59:46.323Z,100333.81
2022-10-03T08:01:21.386Z,100338.38
2022-10-03T08:02:26.792Z,100334.22
2022-10-03T08:03:46.975Z,100348.81
2022-10-03T08:05:12.111Z,100344.00
2022-10-03T08:06:21.035Z,100339.84
2022-10-03T08:07:51.110Z,100350.63
2022-10-03T08:09:23.451Z,100358.34
2022-10-03T08:11:06.542Z,100367.00
2022-10-03T08:12:33.789Z,100354.75
2022-10-03T08:14:18.617Z,100361.63
2022-10-03T08:15:50.126Z,100365.59
2022-10-03T08:17:22.805Z,100367.34
2022-10-03T08:19:02.381Z,100367.06
2022-10-03T08:20:26.245Z,100369.19
2022-10-03T08:21:45.911Z,100357.50
2022-10-03T08:23:25.368Z,100365.97
2022-10-03T08:24:48.950Z,100361.72
2022-10-03T08:26:09.146Z,100370.50
2022-10-03T08:27:26.202Z,100364.47
2022-10-03T08:28:44.995Z,100382.22
2022-10-03T08:29:55.778Z,100382.09
2022-10-03T08:31:03.814Z,100384.59
2022-10-03T08:32:08.644Z,100385.16
2022-10-03T08:33:31.694Z,100384.91
2022-10-03T08:35:12.150Z,100389.47
2022-10-03T08:36:48.385Z,100385.25
2022-10-03T08:38:28.063Z,100392.31
2022-10-03T08:39:48.260Z,100390.91
2022-10-03T08:40:56.949Z,100391.28
2022-10-03T08:41:59.065Z,100380.56
2022-10-03T08:43:10.795Z,100389.22
2022-10-03T08:44:46.725Z,100397.06
2022-10-03T08:46:07.079Z,100385.09
2022-10-03T08:47:25.307Z,100390.63
2022-10-03T08:48:46.363Z,100397.06
2022-10-03T08:50:12.711Z,100404.66
2022-10-03T08:51:38.054Z,100400.34
2022-10-03T08:53:13.920Z,100413.91
2022-10-03T08:54:19.343Z,100409.31
2022-10-03T08:55:55.641Z,100403.78
2022-10-03T08:57:25.085Z,100424.22
2022-10-03T08:58:52.101Z,100428.56
2022-10-03T09:00:03.382Z,100428.66
2022-10-03T09:01:31.147Z,100429.75
2022-10-03T09:05:02.339Z,100439.41
2022-10-03T09:06:58.593Z,100440.19
2022-10-03T09:08:51.049Z,100434.50
2022-10-03T09:09:55.951Z,100435.50
2022-10-03T09:11:10.693Z,100438.72
2022-10-03T09:12:50.568Z,100437.84
2022-10-03T09:14:29.552Z,100431.53
2022-10-03T09:16:09.166Z,100429.53
2022-10-03T09:18:00.923Z,100423.88
2022-10-03T09:19:05.782Z,100426.81
2022-10-03T09:20:26.397Z,100423.97
2022-10-03T09:21:46.920Z,100433.44
2022-10-03T09:23:30.433Z,100435.13
2022-10-03T09:25:09.472Z,100430.28
2022-10-03T09:26:47.956Z,100430.22
2022-10-03T09:27:58.992Z,100423.47
2022-10-03T09:29:38.048Z,100423.53
2022-10-03T09:30:57.480Z,100418.72
2022-10-03T09:32:43.359Z,100428.06
2022-10-03T09:34:25.893Z,100425.06
2022-10-03T09:35:46.677Z,100422.19
2022-10-03T09:37:07.114Z,100426.72
2022-10-03T09:38:33.955Z,100420.28
2022-10-03T09:39:54.570Z,100418.09
2022-10-03T09:41:11.863Z,100412.63
2022-10-03T09:42:35.376Z,100416.44
2022-10-03T09:43:53.143Z,100416.38
2022-10-03T09:45:16.446Z,100414.13
2022-10-03T09:46:33.625Z,100419.16
2022-10-03T09:48:16.103Z,100409.31
2022-10-03T09:49:42.395Z,100411.84
2022-10-03T09:51:10.886Z,100406.22
2022-10-03T09:52:44.451Z,100414.94
2022-10-03T09:54:18.602Z,100408.31
2022-10-03T09:56:06.857Z,100419.09
2022-10-03T09:57:25.129Z,100419.63
2022-10-03T09:58:55.882Z,100413.59
2022-10-03T10:00:08.707Z,100432.78
2022-10-03T10:01:20.059Z,100423.16
2022-10-03T10:02:46.558Z,100417.69
2022-10-03T10:04:32.662Z,100418.97
2022-10-03T10:06:08.961Z,100425.75
2022-10-03T10:07:48.420Z,100433.59
2022-10-03T10:09:16.667Z,100433.31
2022-10-03T10:10:27.897Z,100437.69
2022-10-03T10:11:34.944Z,100434.72
2022-10-03T10:13:19.124Z,100437.75
2022-10-03T10:14:40.141Z,100446.84
2022-10-03T10:16:08.272Z,100451.34
2022-10-03T10:17:22.852Z,100449.84
2022-10-03T10:18:47.787Z,100449.53
2022-10-03T10:20:01.185Z,100442.13
2022-10-03T10:21:42.922Z,100447.00
2022-10-03T10:23:21.510Z,100439.31
2022-10-03T10:24:53.022Z,100442.75
2022-10-03T10:26:20.236Z,100445.38
2022-10-03T10:27:44.215Z,100446.22
2022-10-03T10:28:55.254Z,100443.19
2022-10-03T10:30:09.500Z,100440.25
2022-10-03T10:31:38.635Z,100442.41
2022-10-03T10:33:00.600Z,100439.59
2022-10-03T10:34:14.553Z,100451.53
2022-10-03T10:35:35.280Z,100447.91
2022-10-03T10:36:58.531Z,100445.06
2022-10-03T10:38:25.969Z,100443.13
2022-10-03T10:39:33.898Z,100456.81
2022-10-03T10:40:59.843Z,100452.97
2022-10-03T10:42:29.472Z,100446.59
2022-10-03T10:43:59.362Z,100439.91
2022-10-03T10:45:47.071Z,100446.56
2022-10-03T10:47:27.371Z,100439.53
2022-10-03T10:49:04.637Z,100438.75
2022-10-03T10:50:24.832Z,100437.69
2022-10-03T10:51:45.079Z,100436.19
2022-10-03T10:52:58.907Z,100436.31
2022-10-03T10:54:36.786Z,100435.50
2022-10-03T10:56:15.983Z,100434.34
2022-10-03T10:58:12.248Z,100435.44
2022-10-03T10:59:48.293Z,100435.69
2022-10-03T11:01:15.753Z,100436.72
2022-10-03T11:02:53.310Z,100437.09
2022-10-03T11:04:19.445Z,100433.97
2022-10-03T11:05:42.429Z,100427.88
2022-10-03T11:07:03.104Z,100434.81
2022-10-03T11:08:45.381Z,100438.78
2022-10-03T11:10:25.231Z,100434.00
2022-10-03T11:11:36.251Z,100433.75
2022-10-03T11:13:46.091Z,100444.19
2022-10-03T11:15:28.667Z,100436.28
2022-10-03T11:16:49.295Z,100434.16
2022-10-03T11:18:21.100Z,100432.94
2022-10-03T11:19:41.854Z,100438.84
2022-10-03T11:21:01.927Z,100436.53
2022-10-03T11:22:48.360Z,100434.00
2022-10-03T11:24:27.104Z,100443.84
2022-10-03T11:26:06.776Z,100442.03
2022-10-03T11:27:24.319Z,100432.53
2022-10-03T11:28:47.608Z,100431.13
2022-10-03T11:30:09.720Z,100430.50
2022-10-03T11:32:08.236Z,100426.84
2022-10-03T11:33:40.440Z,100433.19
2022-10-03T11:34:54.055Z,100429.97
2022-10-03T11:36:14.713Z,100430.41
2022-10-03T11:37:39.586Z,100427.38
2022-10-03T11:39:05.320Z,100429.63
2022-10-03T11:40:41.110Z,100422.56
2022-10-03T11:42:02.640Z,100425.63
2022-10-03T11:43:42.676Z,100427.31
2022-10-03T11:44:58.631Z,100429.13
2022-10-03T11:46:20.701Z,100424.84
2022-10-03T11:47:51.114Z,100425.75
2022-10-03T11:49:22.409Z,100426.38
2022-10-03T11:50:47.634Z,100421.91
2022-10-03T11:51:57.032Z,100417.16
2022-10-03T11:53:37.222Z,100422.41
2022-10-03T11:54:44.029Z,100425.47
2022-10-03T11:56:14.998Z,100425.56
2022-10-03T11:57:32.390Z,100420.78
2022-10-03T11:59:12.651Z,100417.53
2022-10-03T12:00:20.670Z,100416.28
2022-10-03T12:01:28.870Z,100423.25
2022-10-03T12:03:08.320Z,100413.44
2022-10-03T12:04:17.505Z,100415.97
2022-10-03T12:05:44.361Z,100414.41
2022-10-03T12:07:34.027Z,100412.19
2022-10-03T12:08:55.540Z,100412.81
2022-10-03T12:10:32.801Z,100408.19
2022-10-03T12:12:30.655Z,100412.34
2022-10-03T12:13:38.679Z,100398.97
2022-10-03T12:14:47.072Z,100400.72
2022-10-03T12:15:52.103Z,100399.22
2022-10-03T12:17:16.685Z,100402.78
2022-10-03T12:18:42.397Z,100399.03
2022-10-03T12:20:02.249Z,100401.16
2022-10-03T12:21:17.384Z,100401.22
2022-10-03T12:22:42.095Z,100388.03
2022-10-03T12:23:57.066Z,100387.03
2022-10-03T12:25:19.047Z,100391.41
2022-10-03T12:26:31.973Z,100388.16
2022-10-03T12:27:49.325Z,100388.53
2022-10-03T12:28:55.988Z,100389.56
2022-10-03T12:30:02.491Z,100392.84
2022-10-03T12:31:21.381Z,100397.41
2022-10-03T12:32:48.825Z,100396.31
2022-10-03T12:34:32.307Z,100381.31
2022-10-03T12:36:03.807Z,100385.56
2022-10-03T12:37:34.106Z,100392.88
2022-10-03T12:38:51.419Z,100389.97
2022-10-03T12:40:33.631Z,100388.38
2022-10-03T12:41:55.850Z,100388.00
2022-10-03T12:43:10.639Z,100390.16
2022-10-03T12:44:37.322Z,100388.38
2022-10-03T12:45:43.273Z,100383.22
2022-10-03T12:46:59.847Z,100386.63
2022-10-03T12:48:19.646Z,100387.66
2022-10-03T12:49:40.716Z,100381.97
2022-10-03T12:51:04.010Z,100381.59
2022-10-03T12:52:39.525Z,100374.94
2022-10-03T12:54:24.660Z,100382.00
2022-10-03T12:55:33.574Z,100380.06
2022-10-03T12:56:48.357Z,100388.66
2022-10-03T12:58:14.605Z,100390.16
2022-10-03T12:59:40.774Z,100376.41
2022-10-03T13:01:04.830Z,100376.06
2022-10-03T13:02:18.923Z,100377.09
2022-10-03T13:03:30.904Z,100378.53
2022-10-03T13:05:10.408Z,100376.94
2022-10-03T13:07:01.705Z,100376.75
2022-10-03T13:08:31.803Z,100374.56
2022-10-03T13:10:12.863Z,100374.00
2022-10-03T13:11:51.037Z,100377.16
2022-10-03T13:12:56.072Z,100372.56
2022-10-03T13:14:06.630Z,100363.44
2022-10-03T13:15:45.861Z,100367.41
2022-10-03T13:16:54.234Z,100362.78
2022-10-03T13:17:56.380Z,100364.84
2022-10-03T13:19:20.389Z,100364.75
2022-10-03T13:20:34.214Z,100356.81
2022-10-03T13:21:54.375Z,100373.25
2022-10-03T13:23:24.374Z,100364.88
2022-10-03T13:24:32.092Z,100362.63
2022-10-03T13:25:48.399Z,100363.97
2022-10-03T13:27:09.060Z,100360.22
2022-10-03T13:28:27.315Z,100367.63
2022-10-03T13:29:43.881Z,100363.34
2022-10-03T13:30:54.010Z,100367.63
2022-10-03T13:32:17.075Z,100361.16
2022-10-03T13:33:32.744Z,100361.47
2022-10-03T13:34:50.079Z,100353.97
2022-10-03T13:36:10.086Z,100364.84
2022-10-03T13:37:37.078Z,100350.47
2022-10-03T13:39:07.869Z,100370.13
2022-10-03T13:40:15.821Z,100349.41
2022-10-03T13:41:29.882Z,100356.81
2022-10-03T13:42:53.702Z,100351.63
2022-10-03T13:44:14.831Z,100350.88
2022-10-03T13:45:26.267Z,100346.44
2022-10-03T13:46:44.942Z,100350.56
2022-10-03T13:48:05.193Z,100350.53
2022-10-03T13:49:35.564Z,100345.00
2022-10-03T13:51:02.285Z,100343.38
2022-10-03T13:52:22.118Z,100343.81
2022-10-03T13:53:43.315Z,100338.97
2022-10-03T13:55:36.354Z,100334.59
2022-10-03T13:56:55.766Z,100343.59
2022-10-03T13:58:38.888Z,100336.91
2022-10-03T14:00:19.889Z,100347.94
2022-10-03T14:01:34.907Z,100343.31
2022-10-03T14:03:04.826Z,100340.97
2022-10-03T14:04:35.612Z,100345.59
2022-10-03T14:06:00.633Z,100337.56
2022-10-03T14:07:13.876Z,100339.47
2022-10-03T14:08:38.137Z,100337.47
2022-10-03T14:10:09.122Z,100354.56
2022-10-03T14:11:22.725Z,100343.66
2022-10-03T14:13:02.340Z,100346.78
2022-10-03T14:14:38.217Z,100346.25
2022-10-03T14:16:00.808Z,100352.13
2022-10-03T14:17:24.521Z,100350.84
2022-10-03T14:18:59.488Z,100340.84
2022-10-03T14:20:07.496Z,100330.16
2022-10-03T14:21:32.092Z,100337.03
2022-10-03T14:22:46.135Z,100339.91
2022-10-03T14:23:59.379Z,100334.13
2022-10-03T14:25:28.341Z,100336.16
2022-10-03T14:27:02.178Z,100332.59
2022-10-03T14:28:20.199Z,100334.06
2022-10-03T14:29:43.982Z,100340.25
2022-10-03T14:31:08.009Z,100339.31
2022-10-03T14:32:46.259Z,100324.41
2022-10-03T14:34:02.827Z,100329.53
2022-10-03T14:35:19.347Z,100327.38
2022-10-03T14:36:46.580Z,100325.75
2022-10-03T14:38:00.281Z,100337.75
2022-10-03T14:39:36.750Z,100338.06
2022-10-03T14:40:48.117Z,100339.06
2022-10-03T14:41:56.170Z,100331.59
2022-10-03T14:43:35.784Z,100335.75
2022-10-03T14:44:43.644Z,100335.31
2022-10-03T14:45:49.665Z,100329.06
2022-10-03T14:46:59.187Z,100323.38
2022-10-03T14:48:08.213Z,100317.34
2022-10-03T14:49:48.520Z,100324.81
2022-10-03T14:50:44.423Z,100313.72
2022-10-03T14:51:54.937Z,100326.16
2022-10-03T14:53:10.856Z,100309.41
2022-10-03T14:54:21.404Z,100320.84
2022-10-03T14:55:30.272Z,100317.34
2022-10-03T14:56:41.146Z,100306.63
2022-10-03T14:58:11.457Z,100328.03
2022-10-03T14:59:26.026Z,100318.28
2022-10-03T15:00:43.467Z,100315.66
2022-10-03T15:01:54.596Z,100317.81
2022-10-03T15:02:56.915Z,100314.56
2022-10-03T15:04:03.998Z,100318.59
2022-10-03T15:05:19.009Z,100322.69
2022-10-03T15:06:33.238Z,100329.38
2022-10-03T15:07:39.255Z,100330.25
2022-10-03T15:08:45.374Z,100327.38
2022-10-03T15:09:50.303Z,100325.91
2022-10-03T15:10:55.712Z,100319.22
2022-10-03T15:12:24.436Z,100320.66
2022-10-03T15:13:28.929Z,100315.31
2022-10-03T15:14:35.766Z,100317.00
2022-10-03T15:15:40.322Z,100326.66
2022-10-03T15:17:03.924Z,100332.13
2022-10-03T15:18:13.292Z,100319.91
2022-10-03T15:19:20.740Z,100322.31
2022-10-03T15:20:36.731Z,100325.03
2022-10-03T15:21:44.048Z,100318.94
2022-10-03T15:22:55.902Z,100322.28
2022-10-03T15:24:02.676Z,100322.53
2022-10-03T15:25:13.950Z,100315.34
2022-10-03T15:26:20.653Z,100309.69
2022-10-03T15:27:24.092Z,100310.28
2022-10-03T15:28:41.204Z,100306.19
2022-10-03T15:29:45.524Z,100310.41
2022-10-03T15:30:50.763Z,100307.19
2022-10-03T15:31:54.953Z,100307.06
2022-10-03T15:33:19.759Z,100304.47
2022-10-03T15:34:27.614Z,100304.22
2022-10-03T15:35:31.487Z,100294.81
2022-10-03T15:36:38.464Z,100304.97
2022-10-03T15:37:46.917Z,100306.22
2022-10-03T15:38:53.952Z,100306.16
2022-10-03T15:40:02.762Z,100303.44
2022-10-03T15:41:36.834Z,100300.00
2022-10-03T15:42:53.692Z,100308.50
2022-10-03T15:44:04.869Z,100299.53
2022-10-03T15:45:17.233Z,100301.25
2022-10-03T15:46:36.381Z,100309.53
2022-10-03T15:47:45.106Z,100307.75
2022-10-03T15:48:54.082Z,100301.19
2022-10-03T15:50:07.119Z,100287.28
2022-10-03T15:51:19.595Z,100304.63
2022-10-03T15:52:31.647Z,100293.25
2022-10-03T15:53:38.003Z,100307.72
2022-10-03T15:54:45.371Z,100308.72
2022-10-03T15:55:52.000Z,100305.28